sensor_id;sensor_type;location;lat;lon;timestamp;P1;durP1;ratioP1;P2;durP2;ratioP2
3541;SDS011;1785;47.388;8.538;2024-02-26T00:00:40;4.67;;;4.30;;
3541;SDS011;1785;47.388;8.538;2024-02-26T00:03:06;4.07;;;3.77;;
3541;SDS011;1785;47.388;8.538;2024-02-26T00:05:33;14.50;;;4.47;;
3541;SDS011;1785;47.388;8.538;2024-02-26T00:07:59;4.20;;;3.90;;
3541;SDS011;1785;47.388;8.538;2024-02-26T00:10:25;4.40;;;4.10;;
3541;SDS011;1785;47.388;8.538;2024-02-26T00:12:51;4.07;;;3.67;;
3541;SDS011;1785;47.388;8.538;2024-02-26T00:15:18;4.47;;;4.07;;
3541;SDS011;1785;47.388;8.538;2024-02-26T00:17:44;4.30;;;4.00;;
3541;SDS011;1785;47.388;8.538;2024-02-26T00:20:10;4.57;;;4.13;;
3541;SDS011;1785;47.388;8.538;2024-02-26T00:22:37;5.43;;;4.70;;
3541;SDS011;1785;47.388;8.538;2024-02-26T00:25:03;4.53;;;4.10;;
3541;SDS011;1785;47.388;8.538;2024-02-26T00:27:30;4.40;;;4.00;;
3541;SDS011;1785;47.388;8.538;2024-02-26T00:29:56;5.23;;;4.77;;
3541;SDS011;1785;47.388;8.538;2024-02-26T00:32:23;4.77;;;4.27;;
3541;SDS011;1785;47.388;8.538;2024-02-26T00:34:49;3.97;;;3.67;;
3541;SDS011;1785;47.388;8.538;2024-02-26T00:37:15;4.00;;;3.70;;
3541;SDS011;1785;47.388;8.538;2024-02-26T00:39:41;13.17;;;4.30;;
3541;SDS011;1785;47.388;8.538;2024-02-26T00:42:08;3.97;;;3.63;;
3541;SDS011;1785;47.388;8.538;2024-02-26T00:44:34;3.60;;;3.40;;
3541;SDS011;1785;47.388;8.538;2024-02-26T00:47:00;3.93;;;3.60;;
3541;SDS011;1785;47.388;8.538;2024-02-26T00:49:27;5.73;;;4.43;;
3541;SDS011;1785;47.388;8.538;2024-02-26T00:51:53;3.93;;;3.70;;
3541;SDS011;1785;47.388;8.538;2024-02-26T00:54:20;5.00;;;3.50;;
3541;SDS011;1785;47.388;8.538;2024-02-26T00:56:47;4.10;;;3.70;;
3541;SDS011;1785;47.388;8.538;2024-02-26T00:59:13;4.40;;;4.10;;
3541;SDS011;1785;47.388;8.538;2024-02-26T01:01:39;4.13;;;3.80;;
3541;SDS011;1785;47.388;8.538;2024-02-26T01:04:05;3.70;;;3.50;;
3541;SDS011;1785;47.388;8.538;2024-02-26T01:06:32;4.20;;;3.90;;
3541;SDS011;1785;47.388;8.538;2024-02-26T01:08:58;3.57;;;3.23;;
3541;SDS011;1785;47.388;8.538;2024-02-26T01:11:24;3.80;;;3.50;;
3541;SDS011;1785;47.388;8.538;2024-02-26T01:13:50;3.57;;;3.37;;
3541;SDS011;1785;47.388;8.538;2024-02-26T01:16:21;3.80;;;3.50;;
3541;SDS011;1785;47.388;8.538;2024-02-26T01:18:47;3.40;;;3.07;;
3541;SDS011;1785;47.388;8.538;2024-02-26T01:21:13;3.47;;;3.27;;
3541;SDS011;1785;47.388;8.538;2024-02-26T01:23:40;3.10;;;2.90;;
3541;SDS011;1785;47.388;8.538;2024-02-26T01:26:07;4.60;;;3.80;;
3541;SDS011;1785;47.388;8.538;2024-02-26T01:28:33;4.13;;;3.53;;
3541;SDS011;1785;47.388;8.538;2024-02-26T01:30:59;3.73;;;3.43;;
3541;SDS011;1785;47.388;8.538;2024-02-26T01:33:26;4.03;;;3.53;;
3541;SDS011;1785;47.388;8.538;2024-02-26T01:35:52;3.87;;;3.57;;
3541;SDS011;1785;47.388;8.538;2024-02-26T01:38:18;3.53;;;3.23;;
3541;SDS011;1785;47.388;8.538;2024-02-26T01:40:45;3.80;;;3.50;;
3541;SDS011;1785;47.388;8.538;2024-02-26T01:43:11;3.80;;;3.50;;
3541;SDS011;1785;47.388;8.538;2024-02-26T01:45:37;3.37;;;3.17;;
3541;SDS011;1785;47.388;8.538;2024-02-26T01:48:04;3.70;;;3.50;;
3541;SDS011;1785;47.388;8.538;2024-02-26T01:50:30;3.53;;;3.30;;
3541;SDS011;1785;47.388;8.538;2024-02-26T01:52:59;4.00;;;3.70;;
3541;SDS011;1785;47.388;8.538;2024-02-26T01:55:26;4.37;;;4.07;;
3541;SDS011;1785;47.388;8.538;2024-02-26T01:57:53;3.90;;;3.60;;
3541;SDS011;1785;47.388;8.538;2024-02-26T02:00:20;4.00;;;3.70;;
3541;SDS011;1785;47.388;8.538;2024-02-26T02:02:46;3.43;;;3.20;;
3541;SDS011;1785;47.388;8.538;2024-02-26T02:05:13;3.43;;;3.23;;
3541;SDS011;1785;47.388;8.538;2024-02-26T02:07:40;3.07;;;2.73;;
3541;SDS011;1785;47.388;8.538;2024-02-26T02:10:07;3.63;;;3.30;;
3541;SDS011;1785;47.388;8.538;2024-02-26T02:12:34;4.03;;;3.60;;
3541;SDS011;1785;47.388;8.538;2024-02-26T02:15:04;3.07;;;2.87;;
3541;SDS011;1785;47.388;8.538;2024-02-26T02:17:31;3.17;;;2.97;;
3541;SDS011;1785;47.388;8.538;2024-02-26T02:19:57;3.00;;;2.80;;
3541;SDS011;1785;47.388;8.538;2024-02-26T02:22:24;4.50;;;3.30;;
3541;SDS011;1785;47.388;8.538;2024-02-26T02:24:51;4.00;;;3.10;;
3541;SDS011;1785;47.388;8.538;2024-02-26T02:27:18;3.00;;;2.80;;
3541;SDS011;1785;47.388;8.538;2024-02-26T02:29:45;2.60;;;2.50;;
3541;SDS011;1785;47.388;8.538;2024-02-26T02:32:12;2.83;;;2.63;;
3541;SDS011;1785;47.388;8.538;2024-02-26T02:34:39;3.30;;;3.00;;
3541;SDS011;1785;47.388;8.538;2024-02-26T02:37:06;3.30;;;3.10;;
3541;SDS011;1785;47.388;8.538;2024-02-26T02:39:33;2.60;;;2.40;;
3541;SDS011;1785;47.388;8.538;2024-02-26T02:41:59;2.47;;;2.37;;
3541;SDS011;1785;47.388;8.538;2024-02-26T02:44:25;3.00;;;2.80;;
3541;SDS011;1785;47.388;8.538;2024-02-26T02:46:51;3.23;;;2.80;;
3541;SDS011;1785;47.388;8.538;2024-02-26T02:49:18;3.13;;;2.90;;
3541;SDS011;1785;47.388;8.538;2024-02-26T02:51:44;2.63;;;2.53;;
3541;SDS011;1785;47.388;8.538;2024-02-26T02:54:10;3.83;;;2.90;;
3541;SDS011;1785;47.388;8.538;2024-02-26T02:56:37;3.00;;;2.80;;
3541;SDS011;1785;47.388;8.538;2024-02-26T02:59:03;3.20;;;2.93;;
3541;SDS011;1785;47.388;8.538;2024-02-26T03:01:30;3.30;;;2.77;;
3541;SDS011;1785;47.388;8.538;2024-02-26T03:03:56;2.77;;;2.57;;
3541;SDS011;1785;47.388;8.538;2024-02-26T03:06:22;3.20;;;2.90;;
3541;SDS011;1785;47.388;8.538;2024-02-26T03:08:49;2.70;;;2.60;;
3541;SDS011;1785;47.388;8.538;2024-02-26T03:11:16;4.27;;;2.50;;
3541;SDS011;1785;47.388;8.538;2024-02-26T03:13:42;3.43;;;2.97;;
3541;SDS011;1785;47.388;8.538;2024-02-26T03:16:09;2.40;;;2.20;;
3541;SDS011;1785;47.388;8.538;2024-02-26T03:18:35;2.87;;;2.67;;
3541;SDS011;1785;47.388;8.538;2024-02-26T03:21:03;3.10;;;2.70;;
3541;SDS011;1785;47.388;8.538;2024-02-26T03:23:29;2.90;;;2.70;;
3541;SDS011;1785;47.388;8.538;2024-02-26T03:25:57;2.50;;;2.30;;
3541;SDS011;1785;47.388;8.538;2024-02-26T03:28:24;2.50;;;2.30;;
3541;SDS011;1785;47.388;8.538;2024-02-26T03:30:50;2.20;;;2.10;;
3541;SDS011;1785;47.388;8.538;2024-02-26T03:33:17;2.60;;;2.50;;
3541;SDS011;1785;47.388;8.538;2024-02-26T03:35:43;2.40;;;2.30;;
3541;SDS011;1785;47.388;8.538;2024-02-26T03:38:09;3.53;;;2.70;;
3541;SDS011;1785;47.388;8.538;2024-02-26T03:40:35;2.83;;;2.63;;
3541;SDS011;1785;47.388;8.538;2024-02-26T03:43:01;2.73;;;2.53;;
3541;SDS011;1785;47.388;8.538;2024-02-26T03:45:29;7.33;;;2.53;;
3541;SDS011;1785;47.388;8.538;2024-02-26T03:47:56;2.70;;;2.50;;
3541;SDS011;1785;47.388;8.538;2024-02-26T03:50:22;3.13;;;2.93;;
3541;SDS011;1785;47.388;8.538;2024-02-26T03:52:49;3.07;;;2.93;;
3541;SDS011;1785;47.388;8.538;2024-02-26T03:55:15;3.30;;;3.07;;
3541;SDS011;1785;47.388;8.538;2024-02-26T03:57:43;3.33;;;3.03;;
3541;SDS011;1785;47.388;8.538;2024-02-26T04:00:10;3.03;;;2.80;;
3541;SDS011;1785;47.388;8.538;2024-02-26T04:02:37;3.10;;;2.90;;
3541;SDS011;1785;47.388;8.538;2024-02-26T04:05:04;2.90;;;2.70;;
3541;SDS011;1785;47.388;8.538;2024-02-26T04:07:34;2.90;;;2.70;;
3541;SDS011;1785;47.388;8.538;2024-02-26T04:10:01;2.60;;;2.40;;
3541;SDS011;1785;47.388;8.538;2024-02-26T04:12:29;2.63;;;2.43;;
3541;SDS011;1785;47.388;8.538;2024-02-26T04:14:56;2.80;;;2.60;;
3541;SDS011;1785;47.388;8.538;2024-02-26T04:17:22;3.33;;;2.87;;
3541;SDS011;1785;47.388;8.538;2024-02-26T04:19:48;2.60;;;2.40;;
3541;SDS011;1785;47.388;8.538;2024-02-26T04:22:15;2.83;;;2.60;;
3541;SDS011;1785;47.388;8.538;2024-02-26T04:24:41;3.93;;;2.90;;
3541;SDS011;1785;47.388;8.538;2024-02-26T04:27:08;3.70;;;3.10;;
3541;SDS011;1785;47.388;8.538;2024-02-26T04:29:34;3.70;;;3.40;;
3541;SDS011;1785;47.388;8.538;2024-02-26T04:32:00;3.63;;;3.33;;
3541;SDS011;1785;47.388;8.538;2024-02-26T04:34:26;4.00;;;3.80;;
3541;SDS011;1785;47.388;8.538;2024-02-26T04:36:52;3.10;;;2.73;;
3541;SDS011;1785;47.388;8.538;2024-02-26T04:39:19;3.00;;;2.80;;
3541;SDS011;1785;47.388;8.538;2024-02-26T04:41:46;3.20;;;3.00;;
3541;SDS011;1785;47.388;8.538;2024-02-26T04:44:12;3.43;;;3.13;;
3541;SDS011;1785;47.388;8.538;2024-02-26T04:46:38;3.00;;;2.87;;
3541;SDS011;1785;47.388;8.538;2024-02-26T04:49:04;2.87;;;2.67;;
3541;SDS011;1785;47.388;8.538;2024-02-26T04:51:30;2.40;;;2.30;;
3541;SDS011;1785;47.388;8.538;2024-02-26T04:53:57;2.70;;;2.50;;
3541;SDS011;1785;47.388;8.538;2024-02-26T04:56:24;2.40;;;2.30;;
3541;SDS011;1785;47.388;8.538;2024-02-26T04:58:51;2.50;;;2.30;;
3541;SDS011;1785;47.388;8.538;2024-02-26T05:01:17;2.43;;;2.13;;
3541;SDS011;1785;47.388;8.538;2024-02-26T05:03:44;3.00;;;2.03;;
3541;SDS011;1785;47.388;8.538;2024-02-26T05:06:10;3.30;;;2.13;;
3541;SDS011;1785;47.388;8.538;2024-02-26T05:08:36;3.00;;;2.10;;
3541;SDS011;1785;47.388;8.538;2024-02-26T05:11:03;2.50;;;2.30;;
3541;SDS011;1785;47.388;8.538;2024-02-26T05:13:31;2.20;;;2.00;;
3541;SDS011;1785;47.388;8.538;2024-02-26T05:15:57;3.13;;;2.40;;
3541;SDS011;1785;47.388;8.538;2024-02-26T05:18:23;2.80;;;2.10;;
3541;SDS011;1785;47.388;8.538;2024-02-26T05:20:49;2.30;;;2.10;;
3541;SDS011;1785;47.388;8.538;2024-02-26T05:23:15;2.43;;;2.00;;
3541;SDS011;1785;47.388;8.538;2024-02-26T05:25:41;2.27;;;2.10;;
3541;SDS011;1785;47.388;8.538;2024-02-26T05:28:10;1.93;;;1.80;;
3541;SDS011;1785;47.388;8.538;2024-02-26T05:30:37;2.33;;;1.90;;
3541;SDS011;1785;47.388;8.538;2024-02-26T05:33:05;2.13;;;1.60;;
3541;SDS011;1785;47.388;8.538;2024-02-26T05:35:31;2.20;;;2.10;;
3541;SDS011;1785;47.388;8.538;2024-02-26T05:37:57;1.93;;;1.83;;
3541;SDS011;1785;47.388;8.538;2024-02-26T05:40:23;1.83;;;1.73;;
3541;SDS011;1785;47.388;8.538;2024-02-26T05:42:49;2.43;;;2.23;;
3541;SDS011;1785;47.388;8.538;2024-02-26T05:45:16;3.40;;;2.13;;
3541;SDS011;1785;47.388;8.538;2024-02-26T05:47:43;2.30;;;2.20;;
3541;SDS011;1785;47.388;8.538;2024-02-26T05:50:09;2.27;;;2.07;;
3541;SDS011;1785;47.388;8.538;2024-02-26T05:52:36;3.43;;;1.30;;
3541;SDS011;1785;47.388;8.538;2024-02-26T05:55:03;1.93;;;1.80;;
3541;SDS011;1785;47.388;8.538;2024-02-26T05:57:30;1.77;;;1.67;;
3541;SDS011;1785;47.388;8.538;2024-02-26T05:59:56;1.90;;;1.80;;
3541;SDS011;1785;47.388;8.538;2024-02-26T06:02:25;2.00;;;1.90;;
3541;SDS011;1785;47.388;8.538;2024-02-26T06:04:53;1.90;;;1.80;;
3541;SDS011;1785;47.388;8.538;2024-02-26T06:07:19;2.27;;;2.00;;
3541;SDS011;1785;47.388;8.538;2024-02-26T06:09:45;2.80;;;2.60;;
3541;SDS011;1785;47.388;8.538;2024-02-26T06:12:11;2.83;;;2.53;;
3541;SDS011;1785;47.388;8.538;2024-02-26T06:14:37;2.80;;;2.60;;
3541;SDS011;1785;47.388;8.538;2024-02-26T06:17:03;2.90;;;2.70;;
3541;SDS011;1785;47.388;8.538;2024-02-26T06:19:30;4.17;;;2.30;;
3541;SDS011;1785;47.388;8.538;2024-02-26T06:21:56;3.00;;;2.40;;
3541;SDS011;1785;47.388;8.538;2024-02-26T06:24:22;3.10;;;2.07;;
3541;SDS011;1785;47.388;8.538;2024-02-26T06:26:49;2.10;;;2.00;;
3541;SDS011;1785;47.388;8.538;2024-02-26T06:29:15;1.97;;;1.87;;
3541;SDS011;1785;47.388;8.538;2024-02-26T06:31:41;2.20;;;2.00;;
3541;SDS011;1785;47.388;8.538;2024-02-26T06:34:07;2.17;;;2.07;;
3541;SDS011;1785;47.388;8.538;2024-02-26T06:36:33;2.43;;;1.90;;
3541;SDS011;1785;47.388;8.538;2024-02-26T06:39:00;2.43;;;2.23;;
3541;SDS011;1785;47.388;8.538;2024-02-26T06:41:26;3.10;;;2.90;;
3541;SDS011;1785;47.388;8.538;2024-02-26T06:43:54;2.33;;;2.23;;
3541;SDS011;1785;47.388;8.538;2024-02-26T06:46:21;2.57;;;2.37;;
3541;SDS011;1785;47.388;8.538;2024-02-26T06:48:47;2.33;;;2.20;;
3541;SDS011;1785;47.388;8.538;2024-02-26T06:51:14;2.20;;;2.07;;
3541;SDS011;1785;47.388;8.538;2024-02-26T06:53:40;2.87;;;2.67;;
3541;SDS011;1785;47.388;8.538;2024-02-26T06:56:07;2.60;;;2.40;;
3541;SDS011;1785;47.388;8.538;2024-02-26T06:58:33;2.90;;;2.80;;
3541;SDS011;1785;47.388;8.538;2024-02-26T07:00:59;6.00;;;2.43;;
3541;SDS011;1785;47.388;8.538;2024-02-26T07:03:25;4.00;;;2.87;;
3541;SDS011;1785;47.388;8.538;2024-02-26T07:05:51;2.60;;;2.40;;
3541;SDS011;1785;47.388;8.538;2024-02-26T07:08:17;2.57;;;2.47;;
3541;SDS011;1785;47.388;8.538;2024-02-26T07:10:44;2.73;;;2.63;;
3541;SDS011;1785;47.388;8.538;2024-02-26T07:13:11;2.90;;;2.50;;
3541;SDS011;1785;47.388;8.538;2024-02-26T07:15:37;2.47;;;2.37;;
3541;SDS011;1785;47.388;8.538;2024-02-26T07:18:03;2.50;;;2.30;;
3541;SDS011;1785;47.388;8.538;2024-02-26T07:20:30;3.37;;;3.10;;
3541;SDS011;1785;47.388;8.538;2024-02-26T07:22:56;3.53;;;3.23;;
3541;SDS011;1785;47.388;8.538;2024-02-26T07:25:23;2.97;;;2.70;;
3541;SDS011;1785;47.388;8.538;2024-02-26T07:27:49;2.43;;;2.33;;
3541;SDS011;1785;47.388;8.538;2024-02-26T07:30:16;3.57;;;3.23;;
3541;SDS011;1785;47.388;8.538;2024-02-26T07:32:42;3.30;;;3.00;;
3541;SDS011;1785;47.388;8.538;2024-02-26T07:35:09;2.63;;;2.50;;
3541;SDS011;1785;47.388;8.538;2024-02-26T07:37:35;3.30;;;3.00;;
3541;SDS011;1785;47.388;8.538;2024-02-26T07:40:03;3.10;;;2.90;;
3541;SDS011;1785;47.388;8.538;2024-02-26T07:42:30;3.43;;;3.23;;
3541;SDS011;1785;47.388;8.538;2024-02-26T07:44:57;3.20;;;3.00;;
3541;SDS011;1785;47.388;8.538;2024-02-26T07:47:23;4.50;;;3.13;;
3541;SDS011;1785;47.388;8.538;2024-02-26T07:49:50;3.20;;;3.00;;
3541;SDS011;1785;47.388;8.538;2024-02-26T07:52:16;3.70;;;3.50;;
3541;SDS011;1785;47.388;8.538;2024-02-26T07:54:42;3.10;;;2.90;;
3541;SDS011;1785;47.388;8.538;2024-02-26T07:57:08;3.30;;;3.10;;
3541;SDS011;1785;47.388;8.538;2024-02-26T07:59:34;3.90;;;3.60;;
3541;SDS011;1785;47.388;8.538;2024-02-26T08:02:01;4.03;;;3.63;;
3541;SDS011;1785;47.388;8.538;2024-02-26T08:04:28;3.77;;;3.47;;
3541;SDS011;1785;47.388;8.538;2024-02-26T08:06:55;4.90;;;3.70;;
3541;SDS011;1785;47.388;8.538;2024-02-26T08:09:21;4.30;;;3.77;;
3541;SDS011;1785;47.388;8.538;2024-02-26T08:11:47;3.80;;;3.57;;
3541;SDS011;1785;47.388;8.538;2024-02-26T08:14:14;4.37;;;4.07;;
3541;SDS011;1785;47.388;8.538;2024-02-26T08:16:40;4.43;;;4.03;;
3541;SDS011;1785;47.388;8.538;2024-02-26T08:19:06;5.13;;;3.63;;
3541;SDS011;1785;47.388;8.538;2024-02-26T08:21:33;3.63;;;3.40;;
3541;SDS011;1785;47.388;8.538;2024-02-26T08:23:59;4.03;;;3.73;;
3541;SDS011;1785;47.388;8.538;2024-02-26T08:26:25;4.63;;;4.23;;
3541;SDS011;1785;47.388;8.538;2024-02-26T08:28:51;4.50;;;3.80;;
3541;SDS011;1785;47.388;8.538;2024-02-26T08:31:19;3.80;;;3.50;;
3541;SDS011;1785;47.388;8.538;2024-02-26T08:33:45;5.37;;;3.33;;
3541;SDS011;1785;47.388;8.538;2024-02-26T08:36:12;3.53;;;3.33;;
3541;SDS011;1785;47.388;8.538;2024-02-26T08:38:39;2.30;;;2.20;;
3541;SDS011;1785;47.388;8.538;2024-02-26T08:41:05;3.40;;;3.10;;
3541;SDS011;1785;47.388;8.538;2024-02-26T08:43:31;3.30;;;2.60;;
3541;SDS011;1785;47.388;8.538;2024-02-26T08:45:57;4.10;;;3.80;;
3541;SDS011;1785;47.388;8.538;2024-02-26T08:48:23;3.03;;;2.83;;
3541;SDS011;1785;47.388;8.538;2024-02-26T08:50:49;3.50;;;3.20;;
3541;SDS011;1785;47.388;8.538;2024-02-26T08:53:16;6.93;;;4.30;;
3541;SDS011;1785;47.388;8.538;2024-02-26T08:55:43;3.20;;;3.00;;
3541;SDS011;1785;47.388;8.538;2024-02-26T08:58:09;4.00;;;3.70;;
3541;SDS011;1785;47.388;8.538;2024-02-26T09:00:35;6.30;;;3.87;;
3541;SDS011;1785;47.388;8.538;2024-02-26T09:03:02;3.80;;;3.57;;
3541;SDS011;1785;47.388;8.538;2024-02-26T09:05:29;3.50;;;3.30;;
3541;SDS011;1785;47.388;8.538;2024-02-26T09:07:55;4.40;;;4.00;;
3541;SDS011;1785;47.388;8.538;2024-02-26T09:10:21;3.77;;;3.13;;
3541;SDS011;1785;47.388;8.538;2024-02-26T09:12:48;9.00;;;3.27;;
3541;SDS011;1785;47.388;8.538;2024-02-26T09:15:14;13.10;;;4.00;;
3541;SDS011;1785;47.388;8.538;2024-02-26T09:17:41;3.70;;;3.50;;
3541;SDS011;1785;47.388;8.538;2024-02-26T09:20:07;6.10;;;4.13;;
3541;SDS011;1785;47.388;8.538;2024-02-26T09:22:34;3.00;;;2.90;;
3541;SDS011;1785;47.388;8.538;2024-02-26T09:25:03;3.53;;;3.30;;
3541;SDS011;1785;47.388;8.538;2024-02-26T09:27:29;3.43;;;3.23;;
3541;SDS011;1785;47.388;8.538;2024-02-26T09:29:56;3.73;;;2.90;;
3541;SDS011;1785;47.388;8.538;2024-02-26T09:32:22;3.30;;;3.00;;
3541;SDS011;1785;47.388;8.538;2024-02-26T09:34:50;3.80;;;3.50;;
3541;SDS011;1785;47.388;8.538;2024-02-26T09:37:16;3.50;;;3.30;;
3541;SDS011;1785;47.388;8.538;2024-02-26T09:39:42;4.00;;;3.60;;
3541;SDS011;1785;47.388;8.538;2024-02-26T09:42:08;3.67;;;3.37;;
3541;SDS011;1785;47.388;8.538;2024-02-26T09:44:37;3.53;;;3.33;;
3541;SDS011;1785;47.388;8.538;2024-02-26T09:47:07;3.03;;;2.40;;
3541;SDS011;1785;47.388;8.538;2024-02-26T09:49:34;3.90;;;3.43;;
3541;SDS011;1785;47.388;8.538;2024-02-26T09:52:01;3.60;;;3.30;;
3541;SDS011;1785;47.388;8.538;2024-02-26T09:54:29;3.70;;;3.40;;
3541;SDS011;1785;47.388;8.538;2024-02-26T09:56:57;4.00;;;3.70;;
3541;SDS011;1785;47.388;8.538;2024-02-26T09:59:27;4.00;;;3.67;;
3541;SDS011;1785;47.388;8.538;2024-02-26T10:01:56;4.27;;;3.97;;
3541;SDS011;1785;47.388;8.538;2024-02-26T10:04:25;4.67;;;4.30;;
3541;SDS011;1785;47.388;8.538;2024-02-26T10:06:52;5.67;;;4.57;;
3541;SDS011;1785;47.388;8.538;2024-02-26T10:09:20;4.77;;;4.37;;
3541;SDS011;1785;47.388;8.538;2024-02-26T10:11:46;5.10;;;4.40;;
3541;SDS011;1785;47.388;8.538;2024-02-26T10:14:14;4.33;;;4.07;;
3541;SDS011;1785;47.388;8.538;2024-02-26T10:16:40;5.87;;;4.00;;
3541;SDS011;1785;47.388;8.538;2024-02-26T10:19:07;5.13;;;3.90;;
3541;SDS011;1785;47.388;8.538;2024-02-26T10:21:35;3.90;;;3.70;;
3541;SDS011;1785;47.388;8.538;2024-02-26T10:24:02;5.47;;;3.30;;
3541;SDS011;1785;47.388;8.538;2024-02-26T10:26:29;3.90;;;3.60;;
3541;SDS011;1785;47.388;8.538;2024-02-26T10:28:59;3.97;;;3.60;;
3541;SDS011;1785;47.388;8.538;2024-02-26T10:31:26;3.97;;;3.70;;
3541;SDS011;1785;47.388;8.538;2024-02-26T10:33:54;3.97;;;3.63;;
3541;SDS011;1785;47.388;8.538;2024-02-26T10:36:21;4.60;;;4.20;;
3541;SDS011;1785;47.388;8.538;2024-02-26T10:38:47;5.63;;;4.33;;
3541;SDS011;1785;47.388;8.538;2024-02-26T10:41:14;4.57;;;4.17;;
3541;SDS011;1785;47.388;8.538;2024-02-26T10:43:40;8.20;;;4.53;;
3541;SDS011;1785;47.388;8.538;2024-02-26T10:46:07;4.43;;;4.13;;
3541;SDS011;1785;47.388;8.538;2024-02-26T10:48:33;4.20;;;3.80;;
3541;SDS011;1785;47.388;8.538;2024-02-26T10:51:00;3.87;;;3.57;;
3541;SDS011;1785;47.388;8.538;2024-02-26T10:53:28;4.10;;;3.70;;
3541;SDS011;1785;47.388;8.538;2024-02-26T10:56:03;4.13;;;3.63;;
3541;SDS011;1785;47.388;8.538;2024-02-26T10:58:31;3.77;;;3.47;;
3541;SDS011;1785;47.388;8.538;2024-02-26T11:00:57;10.90;;;4.30;;
3541;SDS011;1785;47.388;8.538;2024-02-26T11:03:24;11.37;;;4.30;;
3541;SDS011;1785;47.388;8.538;2024-02-26T11:05:51;5.27;;;4.17;;
3541;SDS011;1785;47.388;8.538;2024-02-26T11:08:18;4.37;;;3.97;;
3541;SDS011;1785;47.388;8.538;2024-02-26T11:10:46;5.10;;;4.60;;
3541;SDS011;1785;47.388;8.538;2024-02-26T11:13:14;5.13;;;4.17;;
3541;SDS011;1785;47.388;8.538;2024-02-26T11:15:43;4.20;;;3.67;;
3541;SDS011;1785;47.388;8.538;2024-02-26T11:18:12;3.70;;;3.40;;
3541;SDS011;1785;47.388;8.538;2024-02-26T11:20:40;3.70;;;3.43;;
3541;SDS011;1785;47.388;8.538;2024-02-26T11:23:08;4.37;;;3.97;;
3541;SDS011;1785;47.388;8.538;2024-02-26T11:25:35;4.00;;;3.70;;
3541;SDS011;1785;47.388;8.538;2024-02-26T11:28:02;4.00;;;3.60;;
3541;SDS011;1785;47.388;8.538;2024-02-26T11:30:32;3.47;;;3.27;;
3541;SDS011;1785;47.388;8.538;2024-02-26T11:33:03;4.23;;;3.33;;
3541;SDS011;1785;47.388;8.538;2024-02-26T11:35:32;4.00;;;2.97;;
3541;SDS011;1785;47.388;8.538;2024-02-26T11:37:59;3.33;;;3.13;;
3541;SDS011;1785;47.388;8.538;2024-02-26T11:40:26;4.30;;;3.60;;
3541;SDS011;1785;47.388;8.538;2024-02-26T11:42:53;10.67;;;4.17;;
3541;SDS011;1785;47.388;8.538;2024-02-26T11:45:47;3.20;;;3.00;;
3541;SDS011;1785;47.388;8.538;2024-02-26T11:48:21;3.63;;;3.33;;
3541;SDS011;1785;47.388;8.538;2024-02-26T11:50:48;6.50;;;3.83;;
3541;SDS011;1785;47.388;8.538;2024-02-26T11:53:19;4.50;;;3.00;;
3541;SDS011;1785;47.388;8.538;2024-02-26T11:55:46;3.40;;;3.00;;
3541;SDS011;1785;47.388;8.538;2024-02-26T11:58:12;3.50;;;3.20;;
3541;SDS011;1785;47.388;8.538;2024-02-26T12:00:39;5.57;;;3.70;;
3541;SDS011;1785;47.388;8.538;2024-02-26T12:03:06;3.43;;;3.13;;
3541;SDS011;1785;47.388;8.538;2024-02-26T12:05:35;3.93;;;3.60;;
3541;SDS011;1785;47.388;8.538;2024-02-26T12:08:02;3.77;;;3.43;;
3541;SDS011;1785;47.388;8.538;2024-02-26T12:10:32;4.40;;;4.00;;
3541;SDS011;1785;47.388;8.538;2024-02-26T12:13:02;6.80;;;4.00;;
3541;SDS011;1785;47.388;8.538;2024-02-26T12:15:31;4.50;;;3.27;;
3541;SDS011;1785;47.388;8.538;2024-02-26T12:17:59;4.33;;;3.03;;
3541;SDS011;1785;47.388;8.538;2024-02-26T12:20:27;3.43;;;3.13;;
3541;SDS011;1785;47.388;8.538;2024-02-26T12:22:53;4.37;;;3.97;;
3541;SDS011;1785;47.388;8.538;2024-02-26T12:25:22;3.53;;;3.23;;
3541;SDS011;1785;47.388;8.538;2024-02-26T12:27:50;3.70;;;3.40;;
3541;SDS011;1785;47.388;8.538;2024-02-26T12:30:16;4.00;;;3.70;;
3541;SDS011;1785;47.388;8.538;2024-02-26T12:32:43;3.93;;;3.07;;
3541;SDS011;1785;47.388;8.538;2024-02-26T12:35:09;3.23;;;3.03;;
3541;SDS011;1785;47.388;8.538;2024-02-26T12:37:36;3.90;;;3.60;;
3541;SDS011;1785;47.388;8.538;2024-02-26T12:40:04;3.40;;;3.10;;
3541;SDS011;1785;47.388;8.538;2024-02-26T12:42:32;3.70;;;3.37;;
3541;SDS011;1785;47.388;8.538;2024-02-26T12:45:04;5.37;;;3.37;;
3541;SDS011;1785;47.388;8.538;2024-02-26T12:47:34;3.30;;;3.10;;
3541;SDS011;1785;47.388;8.538;2024-02-26T12:50:02;4.13;;;3.27;;
3541;SDS011;1785;47.388;8.538;2024-02-26T12:52:29;3.53;;;3.23;;
3541;SDS011;1785;47.388;8.538;2024-02-26T12:54:56;3.30;;;3.00;;
3541;SDS011;1785;47.388;8.538;2024-02-26T12:57:22;3.67;;;3.33;;
3541;SDS011;1785;47.388;8.538;2024-02-26T12:59:49;4.70;;;3.70;;
3541;SDS011;1785;47.388;8.538;2024-02-26T13:02:16;3.83;;;3.53;;
3541;SDS011;1785;47.388;8.538;2024-02-26T13:04:42;9.47;;;4.30;;
3541;SDS011;1785;47.388;8.538;2024-02-26T13:07:09;4.13;;;3.80;;
3541;SDS011;1785;47.388;8.538;2024-02-26T13:09:35;6.13;;;3.83;;
3541;SDS011;1785;47.388;8.538;2024-02-26T13:12:04;8.20;;;3.63;;
3541;SDS011;1785;47.388;8.538;2024-02-26T13:14:31;3.50;;;3.20;;
3541;SDS011;1785;47.388;8.538;2024-02-26T13:16:59;3.00;;;2.80;;
3541;SDS011;1785;47.388;8.538;2024-02-26T13:19:25;4.33;;;3.97;;
3541;SDS011;1785;47.388;8.538;2024-02-26T13:21:52;4.80;;;3.40;;
3541;SDS011;1785;47.388;8.538;2024-02-26T13:24:19;6.50;;;4.47;;
3541;SDS011;1785;47.388;8.538;2024-02-26T13:26:45;4.17;;;3.63;;
3541;SDS011;1785;47.388;8.538;2024-02-26T13:29:17;5.03;;;4.53;;
3541;SDS011;1785;47.388;8.538;2024-02-26T13:31:43;4.23;;;3.80;;
3541;SDS011;1785;47.388;8.538;2024-02-26T13:34:09;3.80;;;3.40;;
3541;SDS011;1785;47.388;8.538;2024-02-26T13:36:36;4.00;;;3.70;;
3541;SDS011;1785;47.388;8.538;2024-02-26T13:39:02;6.40;;;3.40;;
3541;SDS011;1785;47.388;8.538;2024-02-26T13:41:30;3.90;;;3.60;;
3541;SDS011;1785;47.388;8.538;2024-02-26T13:43:57;4.67;;;3.80;;
3541;SDS011;1785;47.388;8.538;2024-02-26T13:46:24;3.70;;;3.47;;
3541;SDS011;1785;47.388;8.538;2024-02-26T13:48:50;6.63;;;4.23;;
3541;SDS011;1785;47.388;8.538;2024-02-26T13:51:16;3.37;;;3.07;;
3541;SDS011;1785;47.388;8.538;2024-02-26T13:53:42;3.00;;;2.80;;
3541;SDS011;1785;47.388;8.538;2024-02-26T13:56:09;4.57;;;3.60;;
3541;SDS011;1785;47.388;8.538;2024-02-26T13:58:35;3.87;;;2.83;;
3541;SDS011;1785;47.388;8.538;2024-02-26T14:01:02;3.33;;;3.13;;
3541;SDS011;1785;47.388;8.538;2024-02-26T14:03:29;3.37;;;3.10;;
3541;SDS011;1785;47.388;8.538;2024-02-26T14:05:55;3.97;;;3.23;;
3541;SDS011;1785;47.388;8.538;2024-02-26T14:08:22;5.27;;;3.67;;
3541;SDS011;1785;47.388;8.538;2024-02-26T14:10:49;4.13;;;3.73;;
3541;SDS011;1785;47.388;8.538;2024-02-26T14:13:15;4.40;;;2.97;;
3541;SDS011;1785;47.388;8.538;2024-02-26T14:15:41;3.23;;;2.73;;
3541;SDS011;1785;47.388;8.538;2024-02-26T14:18:07;4.00;;;3.60;;
3541;SDS011;1785;47.388;8.538;2024-02-26T14:20:34;4.00;;;3.70;;
3541;SDS011;1785;47.388;8.538;2024-02-26T14:23:00;4.70;;;3.90;;
3541;SDS011;1785;47.388;8.538;2024-02-26T14:25:26;3.83;;;3.53;;
3541;SDS011;1785;47.388;8.538;2024-02-26T14:27:53;4.40;;;4.00;;
3541;SDS011;1785;47.388;8.538;2024-02-26T14:30:19;3.87;;;3.57;;
3541;SDS011;1785;47.388;8.538;2024-02-26T14:32:45;4.03;;;3.63;;
3541;SDS011;1785;47.388;8.538;2024-02-26T14:35:11;5.93;;;3.63;;
3541;SDS011;1785;47.388;8.538;2024-02-26T14:37:38;3.87;;;3.50;;
3541;SDS011;1785;47.388;8.538;2024-02-26T14:40:05;4.33;;;3.43;;
3541;SDS011;1785;47.388;8.538;2024-02-26T14:42:33;3.97;;;3.60;;
3541;SDS011;1785;47.388;8.538;2024-02-26T14:44:59;3.87;;;3.50;;
3541;SDS011;1785;47.388;8.538;2024-02-26T14:47:26;4.60;;;3.60;;
3541;SDS011;1785;47.388;8.538;2024-02-26T14:49:52;5.20;;;3.63;;
3541;SDS011;1785;47.388;8.538;2024-02-26T14:52:18;3.87;;;3.63;;
3541;SDS011;1785;47.388;8.538;2024-02-26T14:54:45;6.53;;;5.93;;
3541;SDS011;1785;47.388;8.538;2024-02-26T14:57:11;4.70;;;4.20;;
3541;SDS011;1785;47.388;8.538;2024-02-26T14:59:38;3.40;;;3.10;;
3541;SDS011;1785;47.388;8.538;2024-02-26T15:02:04;4.30;;;3.63;;
3541;SDS011;1785;47.388;8.538;2024-02-26T15:04:31;5.07;;;3.23;;
3541;SDS011;1785;47.388;8.538;2024-02-26T15:06:57;5.20;;;3.63;;
3541;SDS011;1785;47.388;8.538;2024-02-26T15:09:23;3.80;;;3.50;;
3541;SDS011;1785;47.388;8.538;2024-02-26T15:11:50;5.60;;;3.40;;